CPX962 Details

Departure: Joint Base McGuire Dix Lakehurst (KWRI)
Arrival: Washington Dulles International Airport (KIAD) at N/A
Route: MXE
Notes: EMPTY | NON-REVENUE REPOSITIONING LEG


Current Weather Information
KWRI 230756Z AUTO 28005KT 10SM CLR 14/14 A2980 RMK AO2 SLP091 T01430138
KIAD 230752Z 00000KT 10SM R01R/5500VP6000FT MIFG CLR 07/07 A2991 RMK AO2 SLP129 T00720067 $